arxmliv
arxmliv build tool
 
KWARC group
LaTeXML
About
   
 

Detailed info

Back to Homepage

List of missing_macros

No. Date Filename num_warningnum_errornum_xmargok_xmargnum_xmathok_xmathMissing macros
70401 2013-03-16 19:11:29 /9308/hep-th.9308082 93650000[\theequation].
70402 2013-03-16 19:11:29 /9309/hep-lat.9309003 210000[{centering}].
70403 2013-03-16 19:11:08 /9309/gr-qc.9309016 520000[{instit}, \receipt].
70404 2013-03-16 19:11:05 /9309/cond-mat.9309051 6470000[\at, \psbox, \pscm, \psannotate]; 1 missing file[psbox.tex].
70405 2013-03-16 19:10:57 /9309/gr-qc.9309025 73170000[Align, \mscount, \endcount]; 1 missing file[referenc.txa].
70406 2013-03-16 19:10:31 /9309/gr-qc.9309014 1910000[\sinhJ].
70407 2013-03-16 19:10:28 /9309/cond-mat.9309045 34290000[{instit}].
70408 2013-03-16 19:10:17 /9309/gr-qc.9309015 420000[{instit}, \receipt].
70409 2013-03-16 19:10:09 /9309/cond-mat.9309046 630000[{instit}].
70410 2013-03-16 19:10:04 /9309/cond-mat.9309055 160000[\USenglish].
70411 2013-03-16 19:09:43 /9309/cond-mat.9309050 2730000[Align, \+, \columns].
70412 2013-03-16 19:09:36 /9309/cond-mat.9309044 810000[{instit}].
70413 2013-03-16 19:08:54 /9309/cond-mat.9309036 020000[{instit}]; 1 missing file[version2.sty].
70414 2013-03-16 19:08:53 /9309/cond-mat.9309038 120000[{instit}]; 1 missing file[version2.sty].
70415 2013-03-16 19:08:47 /9309/cond-mat.9309028 3200000[\affil, \endpage, \references, \endreferences, \singlespace, \refis, \abstract, \endit, \prb, \author, \tag, \endtitlepage, \cite, \prl, \title, \refto, \call]; 3 missing files[eqnorder, reforder.tex, jnl.tex].
70416 2013-03-16 19:08:16 /9309/cond-mat.9309029 110000[\vfootnote].
70417 2013-03-16 19:08:05 /9309/cond-mat.9309012 730000[{instit}, \nonum]; 1 missing file[version2.sty].
70418 2013-03-16 19:07:38 /9309/cond-mat.9309014 420000[{instit}, \receipt].
70419 2013-03-16 19:07:37 /9309/cond-mat.9309017 2020000[\psfig]; 1 missing file[psfig].
70420 2013-03-16 19:07:26 /9309/cond-mat.9309003 8150000[{instit}].
70421 2013-03-16 19:07:13 /9309/chao-dyn.9309002 7430000[Align, \+, \columns].
70422 2013-03-16 19:07:12 /9309/astro-ph.9309059 410000[\twlrm].
70423 2013-03-16 19:06:54 /9309/astro-ph.9309043 5310000[\oddsidemargin].
70424 2013-03-16 19:06:47 /9309/astro-ph.9309058 070000[\citeauthoryear, \shortcite, \citeauthor, \psfig, \institute, {opening}]; 1 missing file[spacekap.sty].
70425 2013-03-16 19:06:43 /9309/astro-ph.9309050 1110000[\@input].
70426 2013-03-16 19:06:33 /9309/astro-ph.9309045 030000[Align, \+, \columns].
70427 2013-03-16 19:06:18 /9309/astro-ph.9309047 230000[Align, \+, \columns].
70428 2013-03-16 19:06:03 /9309/astro-ph.9309033 030000[\pagestyle, \textheight, \textwidth].
70429 2013-03-16 19:05:53 /9309/astro-ph.9309039 5100000[\apj, \physrevlet, \mn, \apjss, \physrev, \acknowledgements, \heading, \et]; 1 missing file[conf_iap.sty].
70430 2013-03-16 19:05:52 /9309/alg-geom.9309005 1910000[\examplename].
70431 2013-03-16 19:05:50 /9309/astro-ph.9309041 2720000[\psfig]; 1 missing file[/usr/lpp/tex/inputs/psfig.tex].
70432 2013-03-16 19:05:34 /9309/astro-ph.9309008 16140000[\bbbr, \picplace, \inst, \phim, \degr, \institute, \offprints, \la, \keywords, \sun, \thesaurus, \arcsec, \acknowledgements]; 1 missing file[laa.sty].
70433 2013-03-16 19:05:20 /9309/alg-geom.9309007 1960000[\@thanks, \@topnum, \ixpt, \@makefntext, \@parboxrestore, \@maketitle].
70434 2013-03-16 19:04:34 /9309/adap-org.9309001 1910000[\upharpoonright].
70435 2013-03-16 19:04:30 /9308/nucl-th.9308019 610000[\theappendix].
70436 2013-03-16 19:04:25 /9309/astro-ph.9309011 010000[\columns].
70437 2013-03-16 19:03:27 /9308/nucl-th.9308011 1220000[\setdec, \dec].
70438 2013-03-16 19:03:22 /9308/math.9308222 410000[\vfootnote].
70439 2013-03-16 19:02:47 /9308/nucl-th.9308005 3070000[\crthick, Align, \endtable, \nr, \begintable]; 2 missing files[tables, mimac].
70440 2013-03-16 19:01:43 /9308/math.9308215 120000[\blacksquare, \upharpoonright].
70441 2013-03-16 19:01:16 /9308/hep-th.9308153 1720000[\Bbb, \frak].
70442 2013-03-16 19:01:05 /9308/math.9308202 530000[\blacksquare, \restriction, \Vdash].
70443 2013-03-16 19:00:22 /9308/hep-th.9308157 4010000[\citet].
70444 2013-03-16 19:00:20 /9308/math.9308210 1560000[{theorem}, {claim}, \newtheorem].
70445 2013-03-16 19:00:03 /9308/hep-th.9308149 1340000[\Rstates, \ggbos, \address, \zorb, \matst, \dlm, \szthz, \refmark, \tHoofttrans, \phishift, \willines, \title, \Pubnum, \modinv, \twmom, \twstone, \endpage, \twsttwo, \foot, \chapter, \titlepage, \author, \banksdine, \ket, \gds, \refout, \spectr, \banksd
70446 2013-03-16 18:58:52 /9308/hep-th.9308130 1580000[\address, \abstract, \contributionrunning, \refno, \begrefchapter, \author, \contribution]; 1 missing file[lecproc.cmm].
70447 2013-03-16 18:58:35 /9308/hep-th.9308136 2010000[\displ@y].
70448 2013-03-16 18:58:24 /9308/hep-th.9308123 1390000[\VOFFSET, \pagebottomfiller, \HOFFSET].
70449 2013-03-16 18:57:50 /9308/hep-th.9308106 6710000[{instit}].
70450 2013-03-16 18:57:34 /9308/hep-th.9308097 210000[\bfAcknowledgments].
70451 2013-03-16 18:57:32 /9308/hep-th.9308067 80120000[\titlea, \titlec, \refno, \contribution, \titleb, \address, \fonote, \abstract, \acknow, \author, \begrefchapter]; 1 missing file[lecproc.cmm].
70452 2013-03-16 18:57:06 /9308/hep-th.9308087 3010000[\citet].
70453 2013-03-16 18:57:03 /9308/hep-th.9308083 122150000[\vfootnote, \mathhexbox]; 1 missing file[referenc.texauxil].
70454 2013-03-16 18:56:54 /9308/hep-th.9308093 020000[\mib, \@addfontinfo].
70455 2013-03-16 18:56:46 /9308/hep-th.9308091 330000[\theappendix].
70456 2013-03-16 18:55:14 /9308/hep-th.9308059 110000[\labe].
70457 2013-03-16 18:54:55 /9308/hep-th.9308061 010000[{instit}].
70458 2013-03-16 18:54:43 /9308/hep-th.9308050 21110000[\section, \endpage, \eq, \foot, \point, \title, \chapter, \FRONTPAGE, \abstract, \normalspace, \pointbegin].
70459 2013-03-16 18:54:11 /9308/hep-th.9308055 720000[Align, \+].
70460 2013-03-16 18:53:32 /9308/hep-th.9308030 2610000[{instit}].
70461 2013-03-16 18:50:32 /9308/hep-ph.9308333 2920000[\@@underline].
70462 2013-03-16 18:50:28 /9308/hep-ph.9308349 3230000[Align, \+, \columns].
70463 2013-03-16 18:49:28 /9308/hep-ph.9308327 440000[\psfig]; 1 missing file[psfig].
70464 2013-03-16 18:49:26 /9308/hep-ph.9308330 3920000[{instit}]; 1 missing file[version2.sty].
70465 2013-03-16 18:48:17 /9308/hep-ph.9308312 1210000[{instit}].
70466 2013-03-16 18:47:55 /9308/hep-ph.9308296 5010000[\columns].
70467 2013-03-16 18:47:49 /9308/hep-ph.9308276 2510000[\oddsidemargin].
70468 2013-03-16 18:47:40 /9308/hep-ph.9308265 11730000[\psfig]; 2 missing files[psfig, refs.tmp].
70469 2013-03-16 18:47:29 /9308/hep-ph.9308290 5810000[\theappendix].
70470 2013-03-16 18:47:11 /9308/hep-ph.9308291 15510000[Align, {subequations}]; 1 missing file[equation.sty].
70471 2013-03-16 18:46:43 /9308/hep-ph.9308282 310000[{instit}].
70472 2013-03-16 18:45:47 /9308/hep-ph.9308221 9930000[\@lign, \skew, \displ@y].
70473 2013-03-16 18:45:41 /9308/hep-ph.9308247 9410000[{centering}].
70474 2013-03-16 18:45:32 /9308/hep-ph.9308242 6390000[\@thanks].
70475 2013-03-16 18:45:11 /9308/hep-ph.9308235 31990000[\preprint, \headskip, \previouscc, \previousdd, \nilles, \glustatus, \tevatron, \ghino, \frontpageskip, \jlf, \previousd, \Closeout, \bkp, \rchi, \papers, \previousa, \gordy, \lightgluino, Align, \ninerm, \wyler, \gldecays, \wlog, \endpage, \foot, \refer
70476 2013-03-16 18:45:09 /9308/hep-ph.9308241 5410000[\doeack].
70477 2013-03-16 18:44:59 /9308/hep-ph.9308253 0790000[\@open@row, \@close@row].
70478 2013-03-16 18:44:57 /9308/hep-ph.9308254 0380000[\eq, \pubnum, \slawab, \witten, \address, \anomaly, \abstract, \daphne, \ack, \kno, \refmark, \gminustwo, \refsend, \title, \kinrev, \endpage, \tkwm, \date, \foot, \lpdr, \direct, \REFSCON, \titlepage, \author, \caps, \pagenumber, \Ref, \refout, \theory,
70479 2013-03-16 18:44:33 /9308/hep-ph.9308233 610000[\@ignoretrue].
70480 2013-03-16 18:44:18 /9308/hep-ph.9308205 820000[\starttext, \landscape].
70481 2013-03-16 18:44:05 /9308/hep-ph.9308222 43110000[\displ@y].
70482 2013-03-16 18:44:02 /9308/hep-ph.9308218 310000[\oddsidemargin].
70483 2013-03-16 18:43:50 /9308/hep-ph.9308209 330000[\headskip, \chapterskip, \pri].
70484 2013-03-16 18:43:49 /9308/hep-lat.9308012 14910000[\skew].
70485 2013-03-16 18:43:47 /9308/hep-ph.9308211 1260000[\GSW, \endpage, \WW, \singlespace, \EU, \KIM, \PQ, \titlestyle, \DSW, \ROSS, \today, \SLM, \normalspace, \sequentialequations, \author, \pagenumber, \refout, \DFS, \FFF, \IBA, \REF, \CKMM, \CH, \NAN, \W]; 1 missing file[phys].
70486 2013-03-16 18:43:43 /9308/hep-lat.9308009 1620000[\fpsbox, \fpsysize].
70487 2013-03-16 18:42:50 /9308/gr-qc.9308012 6210000[\load].
70488 2013-03-16 18:42:45 /9308/gr-qc.9308031 1630000[\endtable, \begintable]; 1 missing file[table].
70489 2013-03-16 18:42:29 /9308/hep-lat.9308005 520000[\psfig]; 1 missing file[psfig].
70490 2013-03-16 18:42:25 /9308/hep-lat.9308006 220000[\psfig, \include].
70491 2013-03-16 18:42:13 /9308/gr-qc.9308010 020000[\lesssim]; 1 missing file[amssymbols.sty].
70492 2013-03-16 18:42:08 /9308/gr-qc.9308009 2310000[{instit}].
70493 2013-03-16 18:41:58 /9308/funct-an.9308001 6110000[\demo].
70494 2013-03-16 18:41:08 /9308/gr-qc.9308004 65390000[\appendix, \ff, \Sin, \Har, \pubnum, \dd, \abstract, \Ger, \ii, \refmark, \Wada, \Lif, \title, \Lou, \kk, \hh, \endpage, \Gar, \intop, \date, \Vil, \Louu, \eqname, \Haw, \Hal, \chapter, \titlepage, \DeW, \refout, \Rya, \bb, \eqn, \mm, \jj, \REF, \cc, \Mi
70495 2013-03-16 18:40:51 /9308/cond-mat.9308022 1930000[{instit}].
70496 2013-03-16 18:40:25 /9308/cond-mat.9308033 210000[\a].
70497 2013-03-16 18:40:22 /9308/cond-mat.9308037 1560000[\rgpde, \meinhardt, \eq, \bare, \PHYSREV, \address, \abstract, \kpp, \dc, \naivep, \fngl, \zelbar, \ACK, \greenf, \po, \nextpr, \standardtheorem, \refmark, \party, \nopubblock, Align, \title, \refsend, \delexp, \footb, \rgfifty, \landd, \bricmont, \endpa
70498 2013-03-16 18:40:01 /9308/cond-mat.9308013 760000[{instit}].
70499 2013-03-16 18:40:00 /9308/cond-mat.9308025 520000[{instit}, \receipt].
70500 2013-03-16 18:39:26 /9308/astro-ph.9308047 270000[\subtitle, \inst, \thesaurus, \institute, \acknowledgements, \keywords]; 1 missing file[laa.sty].
70501 2013-03-16 18:39:22 /9308/cond-mat.9308006 520000[{instit}, \moreauthors].
70502 2013-03-16 18:39:14 /9308/cond-mat.9308008 220000[{instit}, \receipt].
70503 2013-03-16 18:38:57 /9308/astro-ph.9308041 2610000[\ref].
70504 2013-03-16 18:38:54 /9308/astro-ph.9308037 030000[Align, \+, \columns].
70505 2013-03-16 18:38:45 /9308/astro-ph.9308023 420000[\psfig]; 1 missing file[psfig].
70506 2013-03-16 18:38:43 /9308/astro-ph.9308045 330000[Align, \+, \columns].
70507 2013-03-16 18:38:36 /9308/astro-ph.9308026 120000[Align, \+].
70508 2013-03-16 18:38:29 /9308/astro-ph.9308031 3100000[\picplace, \institute, \offprints, \ga, \la, \keywords, \sun, \thesaurus, \acknowledgements]; 1 missing file[laa.sty].
70509 2013-03-16 18:38:23 /9308/astro-ph.9308035 1840000[\ref, \bmu, \balpha, \bsigma].
70510 2013-03-16 18:38:12 /9308/astro-ph.9308008 030000[Align, \+, \columns].
70511 2013-03-16 18:38:01 /9308/astro-ph.9308018 010000[\theappendix].
70512 2013-03-16 18:37:39 /9307/nucl-th.9307004 10640000[\kapp, \sig, \non, \bold].
70513 2013-03-16 18:37:12 /9307/nucl-th.9307029 240000[{instit}, \receipt, \dec]; 1 missing file[version2.sty].
70514 2013-03-16 18:37:02 /9307/nucl-th.9307018 110000[\s].
70515 2013-03-16 18:36:59 /9307/math.9307224 49270000[\goth, \theequation].
70516 2013-03-16 18:36:32 /9307/math.9307220 320000[\transl].
70517 2013-03-16 18:36:23 /9307/nucl-th.9307011 1320000[{instit}, \receipt].
70518 2013-03-16 18:36:15 /9307/nucl-th.9307012 920000[\cit, \De].
70519 2013-03-16 18:36:04 /9307/math.9307229 120000[\RM]; 1 missing file[bull-art].
70520 2013-03-16 18:35:59 /9307/math.9307231 0120000[\cmonth, \endml, \shortauthor, \ml, \keyedby, \shorttitle, \cvolno, \cpgs, \cvol, \cyear]; 1 missing file[bull-ppt].
70521 2013-03-16 18:35:58 /9307/math.9307230 0110000[\cmonth, \endml, \ml, \keyedby, \shorttitle, \cvolno, \cpgs, \cvol, \cyear]; 1 missing file[bull-ppt].
70522 2013-03-16 18:35:54 /9307/math.9307233 0140000[\cmonth, \endml, \ml, \HideDisplacementBoxes, \keyedby, \cvolno, \cpgs, \ratitle, \cvol, \SetRokickiEPSFSpecial, \cyear]; 2 missing files[BoxedEPS.tex, bull-ppt].
70523 2013-03-16 18:35:53 /9307/math.9307232 090000[\cmonth, \shorttitle, \keyedby, \cpgs, \cvolno, \cvol, \cyear]; 1 missing file[bull-ppt].
70524 2013-03-16 18:35:48 /9307/math.9307234 0100000[\cmonth, \endml, \ml, \keyedby, \cvolno, \cpgs, \cvol, \cyear]; 1 missing file[bull-ppt].
70525 2013-03-16 18:35:25 /9307/math.9307226 120000[\RM]; 1 missing file[bull-art].
70526 2013-03-16 18:35:19 /9307/math.9307225 0120000[\cmonth, \endml, \shortauthor, \ml, \keyedby, \shorttitle, \cvolno, \cpgs, \cvol, \cyear]; 1 missing file[bull-ppt].
70527 2013-03-16 18:35:16 /9307/math.9307227 0110000[\cmonth, \endml, \ml, \keyedby, \shorttitle, \cvolno, \cpgs, \cvol, \cyear]; 1 missing file[bull-ppt].
70528 2013-03-16 18:35:15 /9307/math.9307228 0130000[\cmonth, \endml, \mlpar, \shortauthor, \ml, \keyedby, \shorttitle, \cvolno, \cpgs, \cvol, \cyear]; 1 missing file[bull-ppt].
70529 2013-03-16 18:34:31 /9307/math.9307216 210000[\Bbb].
70530 2013-03-16 18:34:20 /9307/math.9307207 1720000[\plainfootnote, \endmatrix].
70531 2013-03-16 18:34:14 /9307/math.9307206 1830000[\\, \plainfootnote, \endmatrix].
70532 2013-03-16 18:33:19 /9307/hep-th.9307172 4740000[\nr, \endtable, \begintable]; 1 missing file[tables].
70533 2013-03-16 18:32:09 /9307/hep-th.9307157 6810000[\@magscale].
70534 2013-03-16 18:31:36 /9307/hep-th.9307142 3630000[\psfig]; 1 missing file[psfig].
70535 2013-03-16 18:31:13 /9307/hep-th.9307139 6270000[\chapterskip, \totalflux, \betaloop, \psfig]; 1 missing file[psfig].
70536 2013-03-16 18:31:03 /9307/hep-th.9307141 9520000[\epsffile, \epsfxsize].
70537 2013-03-16 18:30:28 /9307/hep-th.9307144 210000[\epsfile].
70538 2013-03-16 18:30:09 /9307/hep-th.9307112 7410000[{instit}].
70539 2013-03-16 18:29:10 /9307/hep-th.9307113 510000[{instit}].
70540 2013-03-16 18:28:56 /9307/hep-th.9307105 4210000[\ove].
70541 2013-03-16 18:28:13 /9307/hep-th.9307102 1620000[Align, \+].
70542 2013-03-16 18:28:07 /9307/hep-th.9307093 6510000[\a].
70543 2013-03-16 18:28:03 /9307/hep-th.9307104 1310000[{instit}].
70544 2013-03-16 18:27:54 /9307/hep-th.9307087 4230000[Align, \+, \columns].
70545 2013-03-16 18:27:37 /9307/hep-th.9307091 340000[\crthick, \endtable, \begintable]; 1 missing file[tables].
70546 2013-03-16 18:27:33 /9307/hep-th.9307078 1020000[\Bbb]; 1 missing file[amssymbo.sty].
70547 2013-03-16 18:27:27 /9307/hep-th.9307094 20120000[\@open@row, \@close@row].
70548 2013-03-16 18:27:22 /9307/hep-th.9307079 16120000[\affil, \cite, \endpage, \head, \endreferences, \refis, \title, \abstract, \(, \endit, \author]; 1 missing file[jnl.tex].
70549 2013-03-16 18:27:02 /9307/hep-th.9307066 14760000[\twelvepoint, \AB]; 1 missing file[manumac.tex].
70550 2013-03-16 18:26:48 /9307/hep-th.9307073 17570000[\half, \DVV, \mishC, \mishIqz, \cor, \acor, \abstract, \mishqC, \mishId, \FKN, \mishre, \mishcgh, \mishIdd, \twelvepoint, \DIJ, \mishpa, \mishpb, \DDK, \mishef, \refmark, \title, \mishder, \bcor, \mishrec, \DPGZ, \Morozov, \endpage, \bcorz, \Pol, \mishpr
70551 2013-03-16 18:26:43 /9307/hep-th.9307047 21220000[\twococ, \solcomm, \exer, \spinalt, \transtet, \comm, \multivalwf, \indwig, \gausol, \onepi, \newpoi, \const, \jachag, \lamanv, \rescal, \newnoe, \twolap, \bacaha, \lamalg, \laspinl, \newwf, \npartph].
70552 2013-03-16 18:26:25 /9307/hep-th.9307074 53140000[\twelvepoint, \SLAC, \endpage, \eq, \date, \singlespace, \pubnum, \PHYSREV, \chapter, \title, \abstract, \pubtype, \titlepage, \author].
70553 2013-03-16 18:25:42 /9307/hep-th.9307059 0130000[\affil, \pr, \cite, \head, \endreferences, \refis, \doublespace, \journal, \title, \abstract, \(, \author]; 1 missing file[jnl.tex].
70554 2013-03-16 18:25:18 /9307/hep-th.9307052 10630000[\VOFFSET, \pagebottomfiller, \HOFFSET].
70555 2013-03-16 18:25:02 /9307/hep-th.9307050 5330000[\twelvepoint, \AB]; 1 missing file[manumac].
70556 2013-03-16 18:24:56 /9307/hep-th.9307049 920000[\twelvepoint]; 1 missing file[manumac].
70557 2013-03-16 18:24:52 /9307/hep-th.9307038 6830000[Align, \+, \columns].
70558 2013-03-16 18:24:09 /9307/hep-th.9307043 86770000[\n@space].
70559 2013-03-16 18:24:03 /9307/hep-th.9307042 410000[{instit}].
70560 2013-03-16 18:23:54 /9307/hep-th.9307026 2820000[\beginlpha, \as].
70561 2013-03-16 18:23:11 /9307/hep-th.9307032 420000[Align, \+].
70562 2013-03-16 18:22:01 /9307/hep-th.9307011 1810000[{centering}].
70563 2013-03-16 18:21:58 /9307/hep-ph.9307365 5040000[\arc, \ellipse, \path, \blacken].
70564 2013-03-16 18:21:31 /9307/hep-th.9307013 9130000[\twelvepoint, \AB]; 1 missing file[manumac.tex].
70565 2013-03-16 18:21:25 /9307/hep-ph.9307373 23390000[\resultii, \at, \resulti, \psboxto, \autojoin, \asym, \pscm, \psannotate]; 1 missing file[psbox.tex].
70566 2013-03-16 18:21:13 /9307/hep-ph.9307366 2540000[\arc, \ellipse, \path, \blacken].
70567 2013-03-16 18:20:21 /9307/hep-ph.9307371 3140000[\bezier].
70568 2013-03-16 18:20:19 /9307/hep-ph.9307367 1820000[\epem, \wtilde].
70569 2013-03-16 18:20:05 /9307/hep-ph.9307369 3890000[\pagewidth, \abstractindent, \outsidemargin, \pageheight, \topmargin, \setlength, \centremargin, \bottommargin, \newlength].
70570 2013-03-16 18:19:44 /9307/hep-ph.9307368 610000[{instit}].
70571 2013-03-16 18:19:24 /9307/hep-ph.9307357 870000[\epsfig].
70572 2013-03-16 18:18:34 /9307/hep-ph.9307347 510000[{instit}].
70573 2013-03-16 18:18:08 /9307/hep-ph.9307333 510000[\@ignoretrue].
70574 2013-03-16 18:17:29 /9307/hep-ph.9307342 880000[\int, \fo@t, \listcount, \list, \alloc@, \n@space]; 2 missing files[figures.texauxil, referenc.texauxil].
70575 2013-03-16 18:16:16 /9307/hep-ph.9307313 10320000[\@open@row, Align]; 2 missing files[equation.sty, margin].
70576 2013-03-16 18:15:53 /9307/hep-ph.9307309 191530000[\crthick, \endtable, \columns, \tstrut, \thicksize, Align, \begintable, \thinsize, \crnorule]; 1 missing file[tables.tex].
70577 2013-03-16 18:15:37 /9307/hep-ph.9307304 5010000[\skew].
70578 2013-03-16 18:14:58 /9307/hep-ph.9307312 1810000[{instit}].
70579 2013-03-16 18:14:20 /9307/hep-ph.9307296 25160000[\table, \tablespec, \hline, \endtable, \header, \body, \tablewidth, \thicksize, \spacing, Align, \begintable, \thinsize, \extend, \crnorule]; 2 missing files[tables, ABCmacro].
70580 2013-03-16 18:13:50 /9307/hep-ph.9307274 12610000[\theappendix].
70581 2013-03-16 18:13:44 /9307/hep-ph.9307300 7250000[\leftmargin, \sloppy, \onecolumn, \flushbottom, \evensidemargin, \leftmargini, \textwidth, \oddsidemargin, \topmargin, \leftmarginv, \textheight, \leftmarginvi].
70582 2013-03-16 18:12:30 /9307/hep-ph.9307280 2200000[\endreferencelist, \tenpoint, \endabstract, \EQN, \texsis, \nosechead, \endauthor, \reference, \abstract, \author, \rparen, \WorldScientific, \endreference, \cite, \lparen, \ListReferences, \ninerm, \title, \referencelist, \Eq].
70583 2013-03-16 18:12:13 /9307/hep-ph.9307253 2010000[\theappendix].
70584 2013-03-16 18:11:14 /9307/hep-ph.9307235 104220000[\skew].
70585 2013-03-16 18:10:50 /9307/hep-ph.9307249 4150000[\@open@row, \@thanks, \@topnum, \@date, \@title].
70586 2013-03-16 18:10:42 /9307/hep-ph.9307233 3410000[{instit}].
70587 2013-03-16 18:10:26 /9307/hep-ph.9307236 950000[\apansw].
70588 2013-03-16 18:09:19 /9307/hep-ph.9307221 5220000[\citenum]; 1 missing file[citews.sty].
70589 2013-03-16 18:09:14 /9307/hep-ph.9307231 2510000[\columns].
70590 2013-03-16 18:08:42 /9307/hep-ph.9307222 8110000[{instit}, \nonum].
70591 2013-03-16 18:08:26 /9307/hep-ph.9307207 810000[{instit}].
70592 2013-03-16 18:08:25 /9307/hep-lat.9307016 69100000[{Ntitlepage}, \epsfbox, \docnum, \epsfxsize]; 1 missing file[crnart11.sty].
70593 2013-03-16 18:08:22 /9307/hep-ph.9307202 45310000[\N, \seglength, \photon, \scalarbackx, \photonbackx, \SW, \SE, \E, \photonfronty, \gaplength, \gluon, \scalarbacky, \fermion, \REG, \drawloop, \drawline, \photonfrontx, \NW, \scalar, \gluonbackx, \FLIPPEDCURLY, \photonbacky, \NE, \gluonbacky, \W]; 1 miss
70594 2013-03-16 18:08:11 /9307/hep-ph.9307212 2030000[\psboxscaled, \psfordvips]; 1 missing file[psbox.tex].
70595 2013-03-16 18:08:05 /9307/hep-lat.9307018 16360000[\slabel, Align, {subeqnarray}]; 1 missing file[rep12.sty].
70596 2013-03-16 18:07:48 /9307/hep-lat.9307006 2610000[\n@space].
70597 2013-03-16 18:07:44 /9307/hep-lat.9307020 4120000[Align, {subeqnarray}].
70598 2013-03-16 18:07:42 /9307/hep-lat.9307021 12550000[Align, {subeqnarray}].
70599 2013-03-16 18:06:53 /9307/hep-lat.9307011 310000[\epsffileline].
70600 2013-03-16 18:06:49 /9307/hep-lat.9307014 1220000[{instit}]; 1 missing file[version2.sty].
<<< >>>

[0] [200] [400] [600] [800] [1000] [1200] [1400] [1600] [1800] [2000] [2200] [2400] [2600] [2800] [3000] [3200] [3400] [3600] [3800] [4000] [4200] [4400] [4600] [4800] [5000] [5200] [5400] [5600] [5800] [6000] [6200] [6400] [6600] [6800] [7000] [7200] [7400] [7600] [7800] [8000] [8200] [8400] [8600] [8800] [9000] [9200] [9400] [9600] [9800] [10000] [10200] [10400] [10600] [10800] [11000] [11200] [11400] [11600] [11800] [12000] [12200] [12400] [12600] [12800] [13000] [13200] [13400] [13600] [13800] [14000] [14200] [14400] [14600] [14800] [15000] [15200] [15400] [15600] [15800] [16000] [16200] [16400] [16600] [16800] [17000] [17200] [17400] [17600] [17800] [18000] [18200] [18400] [18600] [18800] [19000] [19200] [19400] [19600] [19800] [20000] [20200] [20400] [20600] [20800] [21000] [21200] [21400] [21600] [21800] [22000] [22200] [22400] [22600] [22800] [23000] [23200] [23400] [23600] [23800] [24000] [24200] [24400] [24600] [24800] [25000] [25200] [25400] [25600] [25800] [26000] [26200] [26400] [26600] [26800] [27000] [27200] [27400] [27600] [27800] [28000] [28200] [28400] [28600] [28800] [29000] [29200] [29400] [29600] [29800] [30000] [30200] [30400] [30600] [30800] [31000] [31200] [31400] [31600] [31800] [32000] [32200] [32400] [32600] [32800] [33000] [33200] [33400] [33600] [33800] [34000] [34200] [34400] [34600] [34800] [35000] [35200] [35400] [35600] [35800] [36000] [36200] [36400] [36600] [36800] [37000] [37200] [37400] [37600] [37800] [38000] [38200] [38400] [38600] [38800] [39000] [39200] [39400] [39600] [39800] [40000] [40200] [40400] [40600] [40800] [41000] [41200] [41400] [41600] [41800] [42000] [42200] [42400] [42600] [42800] [43000] [43200] [43400] [43600] [43800] [44000] [44200] [44400] [44600] [44800] [45000] [45200] [45400] [45600] [45800] [46000] [46200] [46400] [46600] [46800] [47000] [47200] [47400] [47600] [47800] [48000] [48200] [48400] [48600] [48800] [49000] [49200] [49400] [49600] [49800] [50000] [50200] [50400] [50600] [50800] [51000] [51200] [51400] [51600] [51800] [52000] [52200] [52400] [52600] [52800] [53000] [53200] [53400] [53600] [53800] [54000] [54200] [54400] [54600] [54800] [55000] [55200] [55400] [55600] [55800] [56000] [56200] [56400] [56600] [56800] [57000] [57200] [57400] [57600] [57800] [58000] [58200] [58400] [58600] [58800] [59000] [59200] [59400] [59600] [59800] [60000] [60200] [60400] [60600] [60800] [61000] [61200] [61400] [61600] [61800] [62000] [62200] [62400] [62600] [62800] [63000] [63200] [63400] [63600] [63800] [64000] [64200] [64400] [64600] [64800] [65000] [65200] [65400] [65600] [65800] [66000] [66200] [66400] [66600] [66800] [67000] [67200] [67400] [67600] [67800] [68000] [68200] [68400] [68600] [68800] [69000] [69200] [69400] [69600] [69800] [70000] [70200] [70400] [70600] [70800] [71000] [71200] [71400] [71600] [71800] [72000] [72200] [72400] [72600] [72800] [73000] [73200] [73400] [73600] [73800] [74000] [74200] [74400] [74600] [74800] [75000] [75200] [75400] [75600] [75800] [76000] [76200] [76400] [76600] [76800] [77000] [77200] [77400] [77600] [77800] [78000] [78200] [78400] [78600] [78800] [79000] [79200] [79400] [79600] [79800] [80000] [80200] [80400] [80600] [80800] [81000] [81200] [81400] [81600] [81800] [82000] [82200] [82400] [82600] [82800] [83000] [83200] [83400] [83600] [83800] [84000] [84200] [84400] [84600] [84800] [85000] [85200] [85400] [85600] [85800] [86000] [86200] [86400] [86600] [86800] [87000] [87200] [87400] [87600] [87800] [88000] [88200] [88400] [88600] [88800] [89000] [89200] [89400] [89600] [89800] [90000] [90200] [90400] [90600] [90800] [91000] [91200] [91400] [91600] [91800] [92000] [92200] [92400] [92600] [92800] [93000] [93200] [93400] [93600] [93800] [94000] [94200] [94400] [94600] [94800] [95000] [95200] [95400] [95600] [95800] [96000] [96200] [96400] [96600] [96800] [97000] [97200] [97400] [97600] [97800] [98000] [98200] [98400] [98600] [98800] [99000] [99200] [99400] [99600] [99800] [100000] [100200] [100400] [100600] [100800] [101000] [101200] [101400] [101600] [101800] [102000] [102200] [102400] [102600] [102800] [103000] [103200] [103400] [103600] [103800] [104000] [104200] [104400] [104600] [104800] [105000] [105200] [105400] [105600] [105800] [106000] [106200] [106400] [106600] [106800] [107000] [107200] [107400] [107600] [107800] [108000] [108200] [108400] [108600] [108800] [109000] [109200] [109400] [109600] [109800] [110000] [110200] [110400] [110600] [110800] [111000] [111200] [111400] [111600] [111800] [112000] [112200] [112400] [112600] [112800] [113000] [113200] [113400] [113600] [113800] [114000] [114200] [114400] [114600] [114800] [115000] [115200] [115400] [115600] [115800] [116000] [116200] [116400] [116600] [116800] [117000] [117200] [117400] [117600] [117800] [118000] [118200] [118400] [118600] [118800] [119000] [119200] [119400] [119600] [119800] [120000] [120200] [120400] [120600] [120800] [121000] [121200] [121400] [121600] [121800] [122000] [122200] [122400] [122600] [122800] [123000] [123200] [123400] [123600] [123800] [124000] [124200] [124400] [124600] [124800] [125000] [125200] [125400] [125600] [125800] [126000] [126200] [126400] [126600] [126800] [127000] [127200] [127400] [127600] [127800] [128000] [128200] [128400] [128600] [128800] [129000] [129200] [129400] [129600] [129800] [130000] [130200] [130400] [130600] [130800] [131000] [131200] [131400] [131600] [131800] [132000] [132200] [132400] [132600] [132800] [133000] [133200] [133400] [133600] [133800] [134000] [134200] [134400] [134600] [134800] [135000] [135200] [135400] [135600] [135800] [136000] [136200] [136400] [136600] [136800] [137000] [137200] [137400] [137600] [137800] [138000] [138200] [138400] [138600] [138800] [139000] [139200] [139400] [139600] [139800] [140000] [140200] [140400] [140600] [140800] [141000] [141200] [141400] [141600] [141800] [142000] [142200] [142400] [142600] [142800] [143000] [143200] [143400] [143600] [143800] [144000] [144200] [144400] [144600] [144800] [145000] [145200] [145400] [145600] [145800] [146000] [146200] [146400] [146600] [146800] [147000] [147200] [147400] [147600] [147800] [148000] [148200] [148400] [148600] [148800] [149000] [149200] [149400] [149600] [149800] [150000] [150200] [150400] [150600] [150800] [151000] [151200] [151400] [151600] [151800] [152000] [152200] [152400] [152600] [152800] [153000] [153200] [153400] [153600] [153800] [154000] [154200] [154400] [154600] [154800] [155000] [155200] [155400] [155600] [155800] [156000] [156200] [156400] [156600] [156800] [157000] [157200] [157400] [157600] [157800] [158000] [158200] [158400] [158600] [158800] [159000] [159200] [159400] [159600] [159800] [160000] [160200] [160400] [160600] [160800] [161000] [161200] [161400] [161600] [161800] [162000] [162200] [162400] [162600] [162800] [163000] [163200] [163400] [163600] [163800] [164000] [164200] [164400] [164600]
 
  The service has been written by
Heinrich Stamerjohanns